Adak, AK (99546)

8:05 PM HADT on March 31, 2015 (GMT -0900)
Adak | | Change Station
CLOSE
Current Station
Airport
Location: Adak,
Elevation: 13 ft
Nearby Weather Stations

Elev 13 ft 51.88 °N, 176.65 °W | Updated 9 minutes ago

Mostly Cloudy
Mostly Cloudy
36 °F
Feels Like 28 °F
N
12
Wind Variable Wind from North
Gusts 20 mph

Today
High -- | Low -- °F
--% Chance of Precip.
Yesterday
High -- | Low -- °F
Precip. -- in
8:23 AM 9:18 PM
Waxing Gibbous, 90% visible
Pressure 30.03 in
Visibility 4.0 miles
Clouds Few 2300 ft
Scattered Clouds 3100 ft
Mostly Cloudy 4800 ft
Windchill 28 °F
Dew Point 27 °F
Humidity 70%
Rainfall 0.05 in
Snow Depth Not available.
UV 0 out of 12
Pollen Not available.
Air Quality Not available.
Flu Activity Not available.
METAR PADK 010456Z AUTO 36010G17KT 4SM FEW023 SCT031 BKN048 02/M03 A3003 RMK AO1

More Conditions Fewer Conditions

Pressure 30.03 in
Visibility 4.0 miles
Clouds Few 2300 ft
Scattered Clouds 3100 ft
Mostly Cloudy 4800 ft
Windchill 28 °F
Dew Point 27 °F
Humidity 70%
Rainfall 0.05 in
Snow Depth Not available.
UV 0 out of 12
Pollen Not available.
Air Quality Not available.
Flu Activity Not available.
METAR PADK 010456Z AUTO 36010G17KT 4SM FEW023 SCT031 BKN048 02/M03 A3003 RMK AO1

More Conditions Fewer Conditions

10-Day Weather Forecast

Almanac

Astronomy

Mar. 31, 2015 Rise Set
Actual Time
Civil Twilight
Nautical Twilight
Astronomical Twilight
Moon
Length of Visible Light
Length of Day
Tomorrow will be .
, % of the Moon is Illuminated

Today's Extremes

State Highs State Lows

Community

WunderPhotos

Upload Photos

1,809,919 photos uploaded!

WunderBlogs® & News

Nearby

Air Quality

  Air Quality AQ Index Pollutant
Not available.

Snow Depth

Station Depth Elevation

Earthquake Activity

City Distance Mag. Time & Date
Minimum magnitude displayed is 2.5.

Coastal Water Temperatures

Place Temperature

Stations

Nearby Weather Stations

Station Location Temp. Windchill Dew Point Humidity Wind Precip. Elev Updated Type